createdAt,value
2022-09-17T00:01:31.394Z,97095.94
2022-09-17T00:04:04.107Z,97083.78
2022-09-17T00:06:35.977Z,97084.28
2022-09-17T00:09:07.138Z,97081.19
2022-09-17T00:11:37.673Z,97089.41
2022-09-17T00:14:07.681Z,97080.84
2022-09-17T00:16:40.371Z,97079.25
2022-09-17T00:19:13.961Z,97075.38
2022-09-17T00:21:43.349Z,97074.84
2022-09-17T00:24:13.113Z,97076.75
2022-09-17T00:26:40.919Z,97078.63
2022-09-17T00:29:09.369Z,97083.66
2022-09-17T00:31:38.730Z,97081.72
2022-09-17T00:34:07.534Z,97084.00
2022-09-17T00:36:36.173Z,97091.34
2022-09-17T00:39:07.965Z,97087.88
2022-09-17T00:41:37.158Z,97088.47
2022-09-17T00:44:38.583Z,97092.94
2022-09-17T00:47:09.529Z,97087.53
2022-09-17T00:49:37.470Z,97089.63
2022-09-17T00:52:09.035Z,97092.34
2022-09-17T00:54:40.802Z,97087.66
2022-09-17T00:57:09.596Z,97089.16
2022-09-17T00:59:37.625Z,97076.59
2022-09-17T01:02:05.981Z,97078.13
2022-09-17T01:04:34.111Z,97080.34
2022-09-17T01:07:09.967Z,97071.59
2022-09-17T01:09:46.966Z,97077.38
2022-09-17T01:12:28.649Z,97068.28
2022-09-17T01:15:06.838Z,97069.09
2022-09-17T01:17:43.685Z,97081.63
2022-09-17T01:20:34.124Z,97080.25
2022-09-17T01:23:22.049Z,97081.88
2022-09-17T01:26:03.893Z,97084.28
2022-09-17T01:28:42.944Z,97071.09
2022-09-17T01:31:35.910Z,97077.75
2022-09-17T01:34:14.448Z,97081.25
2022-09-17T01:37:00.455Z,97082.88
2022-09-17T01:39:41.564Z,97081.66
2022-09-17T01:42:18.038Z,97087.88
2022-09-17T01:44:54.864Z,97098.75
2022-09-17T01:47:26.328Z,97090.41
2022-09-17T01:49:58.501Z,97087.19
2022-09-17T01:52:28.967Z,97083.97
2022-09-17T01:55:00.813Z,97078.56
2022-09-17T01:57:32.365Z,97077.06
2022-09-17T02:00:03.605Z,97074.72
2022-09-17T02:02:38.631Z,97074.06
2022-09-17T02:05:09.698Z,97078.88
2022-09-17T02:07:42.656Z,97088.38
2022-09-17T02:10:15.264Z,97090.09
2022-09-17T02:12:47.578Z,97079.16
2022-09-17T02:15:21.166Z,97082.19
2022-09-17T02:17:56.255Z,97079.88
2022-09-17T02:20:31.065Z,97080.19
2022-09-17T02:23:03.702Z,97085.25
2022-09-17T02:25:37.552Z,97089.53
2022-09-17T02:28:12.973Z,97095.50
2022-09-17T02:30:41.261Z,97096.59
2022-09-17T02:33:14.154Z,97102.84
2022-09-17T02:35:43.464Z,97095.28
2022-09-17T02:38:11.607Z,97090.59
2022-09-17T02:40:48.866Z,97101.47
2022-09-17T02:43:27.497Z,97089.66
2022-09-17T02:46:07.969Z,97094.41
2022-09-17T02:49:01.317Z,97080.88
2022-09-17T02:51:39.542Z,97067.63
2022-09-17T02:54:19.962Z,97073.06
2022-09-17T02:56:55.649Z,97062.94
2022-09-17T02:59:27.763Z,97070.03
2022-09-17T03:02:01.268Z,97075.03
2022-09-17T03:04:31.845Z,97063.75
2022-09-17T03:06:59.816Z,97056.63
2022-09-17T03:09:27.785Z,97051.59
2022-09-17T03:11:56.246Z,97051.81
2022-09-17T03:14:24.125Z,97046.75
2022-09-17T03:16:52.010Z,97042.47
2022-09-17T03:19:19.880Z,97050.22
2022-09-17T03:21:49.385Z,97043.13
2022-09-17T03:24:17.463Z,97041.56
2022-09-17T03:26:47.373Z,97047.78
2022-09-17T03:29:15.102Z,97044.66
2022-09-17T03:31:43.003Z,97039.53
2022-09-17T03:34:10.947Z,97043.50
2022-09-17T03:36:38.688Z,97052.00
2022-09-17T03:39:08.275Z,97045.03
2022-09-17T03:41:36.253Z,97045.53
2022-09-17T03:44:04.500Z,97043.19
2022-09-17T03:46:32.704Z,97041.47
2022-09-17T03:49:00.694Z,97040.06
2022-09-17T03:51:28.435Z,97033.63
2022-09-17T03:53:56.241Z,97039.81
2022-09-17T03:56:26.645Z,97034.19
2022-09-17T03:58:58.752Z,97031.03
2022-09-17T04:01:27.118Z,97027.47
2022-09-17T04:03:55.861Z,97033.19
2022-09-17T04:06:23.936Z,97021.94
2022-09-17T04:08:51.902Z,97017.28
2022-09-17T04:11:19.679Z,97026.31
2022-09-17T04:13:48.841Z,97016.44
2022-09-17T04:16:17.109Z,97019.22
2022-09-17T04:18:44.868Z,97015.78
2022-09-17T04:21:12.857Z,97012.66
2022-09-17T04:23:41.058Z,97009.06
2022-09-17T04:26:08.924Z,97015.91
2022-09-17T04:28:36.774Z,97025.56
2022-09-17T04:31:06.171Z,97033.72
2022-09-17T04:33:33.962Z,97029.66
2022-09-17T04:36:01.693Z,97016.28
2022-09-17T04:38:29.603Z,97034.31
2022-09-17T04:40:57.921Z,97044.44
2022-09-17T04:43:25.901Z,97037.97
2022-09-17T04:45:53.896Z,97040.75
2022-09-17T04:48:23.014Z,97037.06
2022-09-17T04:50:50.960Z,97028.47
2022-09-17T04:53:19.090Z,97014.44
2022-09-17T04:55:46.909Z,97030.19
2022-09-17T04:58:14.908Z,97022.03
2022-09-17T05:00:42.859Z,97017.09
2022-09-17T05:03:10.676Z,97021.50
2022-09-17T05:05:39.985Z,97003.31
2022-09-17T05:08:08.364Z,97010.47
2022-09-17T05:10:36.205Z,97013.63
2022-09-17T05:13:04.061Z,97019.50
2022-09-17T05:15:32.177Z,97019.19
2022-09-17T05:18:00.685Z,97019.34
2022-09-17T05:20:28.583Z,97031.25
2022-09-17T05:22:58.779Z,97031.47
2022-09-17T05:25:26.633Z,97032.38
2022-09-17T05:27:57.056Z,97035.59
2022-09-17T05:30:25.130Z,97037.13
2022-09-17T05:33:00.001Z,97029.09
2022-09-17T05:35:28.372Z,97012.78
2022-09-17T05:38:04.292Z,97005.47
2022-09-17T05:40:33.022Z,97018.41
2022-09-17T05:43:01.403Z,97011.94
2022-09-17T05:45:31.866Z,97016.28
2022-09-17T05:48:01.328Z,97031.56
2022-09-17T05:50:30.665Z,97049.16
2022-09-17T05:52:59.081Z,97042.16
2022-09-17T05:55:28.570Z,97037.88
2022-09-17T05:57:56.874Z,97031.31
2022-09-17T06:00:24.882Z,97038.81
2022-09-17T06:02:55.967Z,97039.75
2022-09-17T06:05:23.732Z,97048.72
2022-09-17T06:07:52.623Z,97033.28
2022-09-17T06:10:20.585Z,97026.38
2022-09-17T06:12:49.643Z,97022.13
2022-09-17T06:15:17.837Z,97028.44
2022-09-17T06:17:45.783Z,97043.63
2022-09-17T06:20:13.476Z,97034.84
2022-09-17T06:22:41.422Z,97034.13
2022-09-17T06:25:09.585Z,97030.84
2022-09-17T06:27:37.473Z,97023.91
2022-09-17T06:30:08.194Z,97030.69
2022-09-17T06:32:36.324Z,97044.78
2022-09-17T06:35:04.044Z,97053.50
2022-09-17T06:37:33.848Z,97049.28
2022-09-17T06:40:02.127Z,97038.00
2022-09-17T06:42:30.052Z,97036.47
2022-09-17T06:45:00.386Z,97028.38
2022-09-17T06:47:31.302Z,97036.56
2022-09-17T06:49:59.984Z,97037.75
2022-09-17T06:52:27.791Z,97039.63
2022-09-17T06:54:55.718Z,97042.38
2022-09-17T06:57:24.049Z,97039.59
2022-09-17T06:59:51.971Z,97046.53
2022-09-17T07:02:20.087Z,97042.75
2022-09-17T07:04:49.802Z,97043.59
2022-09-17T07:07:17.516Z,97038.94
2022-09-17T07:09:45.698Z,97036.69
2022-09-17T07:12:14.084Z,97043.78
2022-09-17T07:14:41.897Z,97036.75
2022-09-17T07:17:09.932Z,97038.69
2022-09-17T07:19:38.228Z,97048.22
2022-09-17T07:22:08.165Z,97051.41
2022-09-17T07:24:36.118Z,97055.00
2022-09-17T07:27:03.938Z,97056.56
2022-09-17T07:29:32.193Z,97062.53
2022-09-17T07:32:00.184Z,97067.47
2022-09-17T07:34:29.647Z,97070.72
2022-09-17T07:36:57.469Z,97080.84
2022-09-17T07:39:26.665Z,97102.78
2022-09-17T07:41:54.500Z,97098.88
2022-09-17T07:44:22.670Z,97103.56
2022-09-17T07:46:50.636Z,97103.53
2022-09-17T07:49:18.592Z,97096.56
2022-09-17T07:51:46.770Z,97085.78
2022-09-17T07:54:14.661Z,97082.72
2022-09-17T07:56:45.028Z,97084.22
2022-09-17T07:59:13.071Z,97095.88
2022-09-17T08:01:42.226Z,97088.00
2022-09-17T08:04:10.268Z,97074.75
2022-09-17T08:06:40.983Z,97071.72
2022-09-17T08:09:10.773Z,97068.78
2022-09-17T08:11:55.237Z,97066.19
2022-09-17T08:14:29.489Z,97081.06
2022-09-17T08:16:58.489Z,97080.25
2022-09-17T08:19:28.552Z,97068.66
2022-09-17T08:21:56.377Z,97071.78
2022-09-17T08:24:24.202Z,97080.38
2022-09-17T08:26:52.081Z,97081.31
2022-09-17T08:29:20.173Z,97081.41
2022-09-17T08:31:49.634Z,97081.50
2022-09-17T08:34:17.577Z,97082.28
2022-09-17T08:36:45.417Z,97085.91
2022-09-17T08:39:13.881Z,97074.34
2022-09-17T08:41:51.557Z,97082.97
2022-09-17T08:44:25.971Z,97076.31
2022-09-17T08:47:01.280Z,97073.66
2022-09-17T08:49:35.851Z,97081.22
2022-09-17T08:52:38.410Z,97076.16
2022-09-17T08:55:16.588Z,97075.38
2022-09-17T08:57:53.231Z,97074.59
2022-09-17T09:00:38.005Z,97070.66
2022-09-17T09:03:25.891Z,97068.91
2022-09-17T09:05:55.948Z,97059.75
2022-09-17T09:08:31.414Z,97058.66
2022-09-17T09:11:02.170Z,97052.00
2022-09-17T09:13:36.413Z,97041.78
2022-09-17T09:16:08.129Z,97042.31
2022-09-17T09:18:41.453Z,97044.31
2022-09-17T09:21:26.937Z,97046.97
2022-09-17T09:23:58.653Z,97059.66
2022-09-17T09:26:44.948Z,97062.75
2022-09-17T09:29:22.050Z,97063.53
2022-09-17T09:32:16.298Z,97080.00
2022-09-17T09:34:49.291Z,97083.25
2022-09-17T09:37:23.753Z,97090.69
2022-09-17T09:39:54.954Z,97085.66
2022-09-17T09:42:30.280Z,97081.72
2022-09-17T09:45:05.209Z,97078.13
2022-09-17T09:47:59.976Z,97076.69
2022-09-17T09:51:05.375Z,97081.34
2022-09-17T09:53:38.169Z,97086.50
2022-09-17T09:56:25.106Z,97088.09
2022-09-17T09:58:52.834Z,97098.66
2022-09-17T10:01:22.184Z,97109.22
2022-09-17T10:03:54.048Z,97098.28
2022-09-17T10:06:23.421Z,97099.06
2022-09-17T10:09:11.340Z,97097.75
2022-09-17T10:11:39.700Z,97094.72
2022-09-17T10:14:26.348Z,97101.44
2022-09-17T10:17:20.848Z,97101.44
2022-09-17T10:20:13.800Z,97102.19
2022-09-17T10:22:45.313Z,97100.22
2022-09-17T10:25:28.447Z,97104.53
2022-09-17T10:27:57.980Z,97098.25
2022-09-17T10:30:26.011Z,97102.56
2022-09-17T10:33:18.774Z,97096.31
2022-09-17T10:35:58.020Z,97095.91
2022-09-17T10:38:36.353Z,97102.91
2022-09-17T10:41:13.525Z,97103.75
2022-09-17T10:43:42.613Z,97106.13
2022-09-17T10:46:15.802Z,97102.19
2022-09-17T10:48:47.666Z,97086.53
2022-09-17T10:51:21.837Z,97099.06
2022-09-17T10:54:07.278Z,97092.78
2022-09-17T10:56:37.317Z,97095.16
2022-09-17T10:59:26.135Z,97090.44
2022-09-17T11:02:11.196Z,97095.91
2022-09-17T11:04:51.781Z,97096.31
2022-09-17T11:07:44.194Z,97092.34
2022-09-17T11:10:23.514Z,97095.81
2022-09-17T11:13:12.544Z,97103.25
2022-09-17T11:15:53.274Z,97104.47
2022-09-17T11:18:39.889Z,97107.53
2022-09-17T11:21:32.428Z,97102.13
2022-09-17T11:24:31.341Z,97099.00
2022-09-17T11:27:08.861Z,97092.72
2022-09-17T11:29:51.781Z,97102.56
2022-09-17T11:32:35.094Z,97095.16
2022-09-17T11:35:07.780Z,97086.09
2022-09-17T11:37:41.292Z,97092.00
2022-09-17T11:40:17.971Z,97102.97
2022-09-17T11:42:52.576Z,97104.53
2022-09-17T11:45:26.324Z,97111.59
2022-09-17T11:47:59.213Z,97111.19
2022-09-17T11:50:32.403Z,97108.81
2022-09-17T11:53:10.009Z,97101.00
2022-09-17T11:55:43.111Z,97089.66
2022-09-17T11:58:20.410Z,97081.03
2022-09-17T12:00:54.847Z,97079.50
2022-09-17T12:03:29.659Z,97087.31
2022-09-17T12:05:59.718Z,97081.84
2022-09-17T12:08:40.277Z,97082.25
2022-09-17T12:11:12.787Z,97084.97
2022-09-17T12:13:45.199Z,97082.63
2022-09-17T12:16:17.667Z,97078.31
2022-09-17T12:18:56.147Z,97078.22
2022-09-17T12:21:30.612Z,97073.94
2022-09-17T12:24:03.241Z,97067.75
2022-09-17T12:27:05.454Z,97063.81
2022-09-17T12:30:00.605Z,97054.41
2022-09-17T12:33:03.902Z,97051.25
2022-09-17T12:38:55.906Z,97041.09
2022-09-17T12:41:33.737Z,97033.25
2022-09-17T12:44:16.967Z,97041.88
2022-09-17T12:47:00.760Z,97032.09
2022-09-17T12:49:54.559Z,97031.31
2022-09-17T12:52:35.200Z,97027.38
2022-09-17T12:55:21.071Z,97031.66
2022-09-17T12:58:00.073Z,97025.41
2022-09-17T13:00:38.867Z,97020.72
2022-09-17T13:03:19.258Z,97013.31
2022-09-17T13:06:11.421Z,97012.09
2022-09-17T13:09:04.701Z,97010.50
2022-09-17T13:12:09.930Z,97008.91
2022-09-17T13:14:59.122Z,97013.22
2022-09-17T13:17:34.366Z,97008.09
2022-09-17T13:20:15.810Z,97010.50
2022-09-17T13:22:49.266Z,97013.63
2022-09-17T13:25:19.468Z,97012.50
2022-09-17T13:27:48.554Z,97026.13
2022-09-17T13:30:17.657Z,97023.00
2022-09-17T13:32:55.160Z,97021.47
2022-09-17T13:35:51.726Z,97030.06
2022-09-17T13:38:23.846Z,97029.28
2022-09-17T13:40:53.176Z,97020.66
2022-09-17T13:43:27.022Z,97019.09
2022-09-17T13:46:15.273Z,97014.75
2022-09-17T13:48:51.058Z,97012.84
2022-09-17T13:51:54.281Z,97006.53
2022-09-17T13:54:25.638Z,97017.09
2022-09-17T13:57:09.249Z,97017.84
2022-09-17T13:59:38.834Z,97010.41
2022-09-17T14:02:31.217Z,97010.44
2022-09-17T14:05:30.966Z,97013.50
2022-09-17T14:08:30.927Z,96984.19
2022-09-17T14:11:02.067Z,96975.22
2022-09-17T14:13:45.639Z,96969.72
2022-09-17T14:16:46.356Z,96981.03
2022-09-17T14:19:39.666Z,96997.81
2022-09-17T14:22:16.449Z,96985.97
2022-09-17T14:24:52.483Z,96992.66
2022-09-17T14:27:42.786Z,97001.59
2022-09-17T14:30:17.520Z,96994.13
2022-09-17T14:32:52.761Z,96989.34
2022-09-17T14:35:25.717Z,96984.22
2022-09-17T14:37:58.199Z,96987.75
2022-09-17T14:40:28.465Z,96992.84
2022-09-17T14:42:59.214Z,97003.81
2022-09-17T14:45:32.030Z,97002.72
2022-09-17T14:48:27.533Z,97010.81
2022-09-17T14:51:18.289Z,97003.78
2022-09-17T14:53:46.642Z,97008.44
2022-09-17T14:56:18.430Z,97002.19
2022-09-17T14:58:50.163Z,97006.13
2022-09-17T15:01:24.558Z,96996.63
2022-09-17T15:04:21.100Z,96984.13
2022-09-17T15:06:49.878Z,96972.47
2022-09-17T15:09:18.677Z,96977.03
2022-09-17T15:11:48.994Z,96965.78
2022-09-17T15:14:21.217Z,96962.25
2022-09-17T15:16:50.869Z,96965.31
2022-09-17T15:19:28.199Z,96963.44
2022-09-17T15:21:57.731Z,96962.63
2022-09-17T15:24:37.778Z,96966.16
2022-09-17T15:27:13.486Z,96955.63
2022-09-17T15:29:46.544Z,96971.34
2022-09-17T15:32:15.259Z,96965.41
2022-09-17T15:34:43.366Z,96963.91
2022-09-17T15:37:20.297Z,96963.34
2022-09-17T15:39:55.582Z,96974.69
2022-09-17T15:42:28.206Z,96977.81
2022-09-17T15:45:08.785Z,96977.88
2022-09-17T15:47:54.968Z,96981.81
2022-09-17T15:50:25.396Z,96987.16
2022-09-17T15:53:12.532Z,96987.88
2022-09-17T15:55:42.831Z,96998.09
2022-09-17T15:58:27.212Z,96986.25
2022-09-17T16:01:51.679Z,96990.97
2022-09-17T16:04:22.664Z,96987.81
2022-09-17T16:07:02.572Z,96989.47
2022-09-17T16:09:48.714Z,96988.47
2022-09-17T16:12:19.164Z,96999.41
2022-09-17T16:14:50.861Z,97005.41
2022-09-17T16:17:36.586Z,96999.56
2022-09-17T16:20:13.565Z,96996.09
2022-09-17T16:22:41.730Z,96998.03
2022-09-17T16:25:10.325Z,97004.97
2022-09-17T16:27:49.258Z,97011.97
2022-09-17T16:30:20.413Z,97005.72
2022-09-17T16:32:48.612Z,97009.53
2022-09-17T16:35:17.904Z,97010.94
2022-09-17T16:37:49.461Z,97005.41
2022-09-17T16:40:18.466Z,97002.25
2022-09-17T16:42:46.714Z,96997.69
2022-09-17T16:45:15.352Z,96997.69
2022-09-17T16:47:44.847Z,96991.41
2022-09-17T16:50:15.088Z,96989.88
2022-09-17T16:52:43.809Z,96985.94
2022-09-17T16:55:14.406Z,96990.56
2022-09-17T16:57:42.444Z,96978.84
2022-09-17T17:00:14.719Z,96977.22
2022-09-17T17:02:43.699Z,96976.25
2022-09-17T17:05:11.798Z,96976.66
2022-09-17T17:07:39.700Z,96979.31
2022-09-17T17:10:09.006Z,96971.63
2022-09-17T17:12:38.294Z,96970.78
2022-09-17T17:15:06.998Z,96967.84
2022-09-17T17:17:35.842Z,96972.91
2022-09-17T17:20:07.953Z,96977.91
2022-09-17T17:22:36.883Z,96968.19
2022-09-17T17:25:05.527Z,96972.03
2022-09-17T17:27:33.632Z,96971.28
2022-09-17T17:30:02.213Z,96976.66
2022-09-17T17:32:30.341Z,96955.59
2022-09-17T17:34:58.241Z,96969.00
2022-09-17T17:37:27.698Z,96965.84
2022-09-17T17:39:56.299Z,96957.94
2022-09-17T17:42:24.095Z,96953.25
2022-09-17T17:44:51.841Z,96958.66
2022-09-17T17:47:19.781Z,96964.91
2022-09-17T17:49:48.742Z,96956.28
2022-09-17T17:52:16.478Z,96952.78
2022-09-17T17:54:45.701Z,96959.38
2022-09-17T17:57:13.444Z,96965.97
2022-09-17T17:59:41.174Z,96956.88
2022-09-17T18:02:10.329Z,96961.47
2022-09-17T18:04:38.169Z,96948.28
2022-09-17T18:07:06.137Z,96959.09
2022-09-17T18:09:34.110Z,96955.22
2022-09-17T18:12:03.893Z,96953.75
2022-09-17T18:14:32.132Z,96956.13
2022-09-17T18:17:01.032Z,96955.31
2022-09-17T18:19:28.797Z,96955.22
2022-09-17T18:21:56.666Z,96955.31
2022-09-17T18:24:24.530Z,96958.38
2022-09-17T18:26:52.338Z,96958.38
2022-09-17T18:29:21.455Z,96960.66
2022-09-17T18:31:49.543Z,96958.28
2022-09-17T18:34:18.432Z,96961.41
2022-09-17T18:36:50.997Z,96973.59
2022-09-17T18:39:56.965Z,96973.47
2022-09-17T18:42:09.164Z,96983.28
2022-09-17T18:44:38.481Z,96984.75
2022-09-17T18:47:06.754Z,96985.94
2022-09-17T18:49:34.724Z,96985.59
2022-09-17T18:52:03.250Z,96992.69
2022-09-17T18:54:30.937Z,96984.13
2022-09-17T18:56:58.749Z,96980.25
2022-09-17T18:59:26.664Z,96980.88
2022-09-17T19:01:55.747Z,96977.84
2022-09-17T19:04:23.557Z,96988.00
2022-09-17T19:06:51.466Z,96987.25
2022-09-17T19:09:19.757Z,96978.81
2022-09-17T19:11:47.525Z,96971.84
2022-09-17T19:14:15.437Z,96976.44
2022-09-17T19:16:43.140Z,96969.03
2022-09-17T19:19:12.323Z,96966.31
2022-09-17T19:21:40.305Z,96963.25
2022-09-17T19:24:08.521Z,96963.91
2022-09-17T19:26:36.350Z,96964.72
2022-09-17T19:29:04.621Z,96960.75
2022-09-17T19:31:32.454Z,96963.81
2022-09-17T19:34:00.340Z,96961.47
2022-09-17T19:36:29.860Z,96967.25
2022-09-17T19:38:58.692Z,96961.41
2022-09-17T19:41:26.680Z,96968.41
2022-09-17T19:43:59.523Z,96974.63
2022-09-17T19:46:27.779Z,96963.72
2022-09-17T19:48:57.533Z,96968.75
2022-09-17T19:51:28.177Z,96960.19
2022-09-17T19:53:57.951Z,96963.78
2022-09-17T19:56:28.073Z,96970.22
2022-09-17T19:58:56.623Z,96968.84
2022-09-17T20:01:24.621Z,96963.81
2022-09-17T20:03:53.086Z,96970.09
2022-09-17T20:06:23.254Z,96977.09
2022-09-17T20:08:53.058Z,96973.03
2022-09-17T20:11:24.199Z,96970.63
2022-09-17T20:13:57.654Z,96972.38
2022-09-17T20:16:26.618Z,96972.75
2022-09-17T20:18:54.785Z,96964.34
2022-09-17T20:21:24.844Z,96964.44
2022-09-17T20:23:52.747Z,96965.63
2022-09-17T20:26:22.877Z,96951.25
2022-09-17T20:28:51.965Z,96947.28
2022-09-17T20:31:21.937Z,96947.22
2022-09-17T20:33:52.657Z,96947.22
2022-09-17T20:36:21.876Z,96949.66
2022-09-17T20:41:40.445Z,96947.06
2022-09-17T20:44:08.606Z,96947.94
2022-09-17T20:46:36.384Z,96947.19
2022-09-17T20:49:05.347Z,96946.75
2022-09-17T20:51:33.856Z,96954.19
2022-09-17T20:54:02.468Z,96953.78
2022-09-17T20:56:33.230Z,96953.44
2022-09-17T20:59:09.273Z,96952.72
2022-09-17T21:01:38.022Z,96941.53
2022-09-17T21:04:08.603Z,96948.72
2022-09-17T21:06:38.497Z,96938.41
2022-09-17T21:09:07.250Z,96941.19
2022-09-17T21:11:35.381Z,96935.59
2022-09-17T21:14:04.817Z,96932.81
2022-09-17T21:16:32.878Z,96932.13
2022-09-17T21:19:02.453Z,96933.59
2022-09-17T21:21:34.132Z,96929.00
2022-09-17T21:24:02.549Z,96927.53
2022-09-17T21:26:30.541Z,96933.59
2022-09-17T21:28:58.801Z,96928.88
2022-09-17T21:31:32.388Z,96928.84
2022-09-17T21:34:03.383Z,96922.69
2022-09-17T21:36:33.612Z,96930.19
2022-09-17T21:39:03.471Z,96914.84
2022-09-17T21:41:31.952Z,96918.00
2022-09-17T21:43:59.960Z,96934.38
2022-09-17T21:46:33.047Z,96937.88
2022-09-17T21:49:02.989Z,96934.31
2022-09-17T21:51:33.836Z,96935.09
2022-09-17T21:54:03.222Z,96939.88
2022-09-17T21:56:31.813Z,96936.72
2022-09-17T21:59:01.895Z,96935.25
2022-09-17T22:01:35.547Z,96938.16
2022-09-17T22:04:03.657Z,96937.88
2022-09-17T22:06:32.891Z,96937.09
2022-09-17T22:09:02.997Z,96944.19
2022-09-17T22:11:33.070Z,96943.75
2022-09-17T22:14:05.113Z,96938.19
2022-09-17T22:16:35.940Z,96939.34
2022-09-17T22:19:04.718Z,96943.31
2022-09-17T22:21:35.181Z,96942.06
2022-09-17T22:24:04.412Z,96943.97
2022-09-17T22:26:35.330Z,96946.69
2022-09-17T22:29:05.509Z,96944.22
2022-09-17T22:31:34.872Z,96937.88
2022-09-17T22:34:03.142Z,96944.94
2022-09-17T22:36:31.048Z,96943.91
2022-09-17T22:38:59.488Z,96941.00
2022-09-17T22:41:29.377Z,96946.03
2022-09-17T22:43:58.888Z,96944.16
2022-09-17T22:46:28.521Z,96949.13
2022-09-17T22:48:58.612Z,96948.22
2022-09-17T22:51:28.524Z,96940.66
2022-09-17T22:53:56.539Z,96951.34
2022-09-17T22:56:25.269Z,96946.97
2022-09-17T22:58:53.253Z,96952.16
2022-09-17T23:01:23.497Z,96950.09
2022-09-17T23:03:53.492Z,96940.44
2022-09-17T23:06:24.867Z,96946.66
2022-09-17T23:08:53.450Z,96947.63
2022-09-17T23:11:22.928Z,96950.94
2022-09-17T23:13:51.883Z,96945.50
2022-09-17T23:16:20.974Z,96942.66
2022-09-17T23:18:49.299Z,96941.38
2022-09-17T23:21:19.349Z,96947.56
2022-09-17T23:23:50.867Z,96940.94
2022-09-17T23:26:20.714Z,96936.56
2022-09-17T23:28:49.582Z,96942.75
2022-09-17T23:31:19.037Z,96935.09
2022-09-17T23:33:48.235Z,96931.81
2022-09-17T23:36:19.264Z,96935.50
2022-09-17T23:38:49.724Z,96924.03
2022-09-17T23:41:20.950Z,96921.03
2022-09-17T23:43:50.502Z,96923.38
2022-09-17T23:46:18.940Z,96918.06
2022-09-17T23:48:47.371Z,96917.94
2022-09-17T23:51:16.323Z,96928.16
2022-09-17T23:53:44.887Z,96918.94
2022-09-17T23:56:16.044Z,96918.06
2022-09-17T23:58:43.904Z,96911.78
